• Join FlightAware (Why Join?)
  • Login
  • US Flag 
07:03PM EDT


 

Airport Tracker/Info


-or-


 

Live Flight TrackerFlight Track Log ✈ N675MC ✈ 09-Sep-2013 ✈ KATL - KTYS

Flight Track Log - Related Links

Times and Time Zones

All times are in EDT time to prevent confusion due to time zone crossing. See the N675MC flight status page for this flight to view local times or setup timezone preferences in your user account.

Time Position Orientation Groundspeed Altitude Reporting Facility
EDT Latitude Longitude Course Direction KTS MPH feet Rate Location/Type
10:12AM 33.6539 -84.3758 10° North 409 471 2,500  Level Atlanta Center
10:13AM 33.6814 -84.2983 67° East 281 323 5,100 2,700 Climbing Atlanta Center
10:14AM 33.7128 -84.2161 65° Northeast 271 312 7,900 1,740 Climbing Atlanta Center
10:15AM 33.9982 -84.3573 North  Level Estimated
10:15AM 33.8000 -84.1833 17° North 284 327 9,200  Level Atlanta TRACON
10:16AM 34.0886 -84.3396 North  Level Estimated
10:16AM 33.8833 -84.2000 351° North 322 371 10,700  Level Atlanta TRACON
10:17AM 34.1787 -84.3197 10° North  Level FlightAware Approximate
10:18AM 34.0236 -84.2819 334° Northwest 347 399 14,100  Level Atlanta Center
10:19AM 34.1175 -84.3122 345° North 336 387 14,200 1,260 Climbing Atlanta Center
10:20AM 34.2133 -84.3428 345° North 348 400 16,700 2,100 Climbing Atlanta Center
10:21AM 34.3136 -84.3708 347° North 358 412 18,400 1,800 Climbing Atlanta Center
10:22AM 34.4011 -84.4014 344° North 369 425 20,300 1,260 Climbing Atlanta Center
10:23AM 34.5097 -84.3867 North 383 441 21,000 300 Climbing Atlanta Center
10:24AM 34.6267 -84.3544 13° North 406 467 20,900  Descending Atlanta Center
10:25AM 34.7456 -84.3169 15° North 425 489 21,000 -660 Climbing Atlanta Center
10:26AM 34.8606 -84.2817 14° North 430 495 19,600 -2,100 Descending Atlanta Center
10:27AM 34.9733 -84.2567 10° North 419 482 16,800 -2,700 Descending Atlanta Center
10:28AM 35.0797 -84.2267 13° North 404 465 14,300 -2,760 Descending Atlanta Center
10:29AM 35.1800 -84.1964 14° North 382 440 11,300 -1,620 Descending Atlanta Center
10:30AM 35.2717 -84.1761 10° North 359 413 11,100 -180 Descending Atlanta Center
10:31AM 35.3553 -84.1508 14° North 325 374 11,000 -180 Descending Atlanta Center
10:32AM 35.4344 -84.1306 12° North 304 350 10,800 -960 Descending Atlanta Center
10:33AM 35.5139 -84.1078 13° North 291 335 9,100 -1,680 Descending Atlanta Center
10:34AM 35.5764 -84.0542 35° Northeast 286 329 7,500 -1,320 Descending Atlanta Center
10:35AM 35.6369 -83.9903 41° Northeast 273 314 6,500 -1,200 Descending Atlanta Center
10:36AM 35.6931 -83.9339 39° Northeast 267 307 5,100 -1,320 Descending Atlanta Center
10:37AM 35.7558 -83.8878 31° Northeast 262 302 3,900 -1,020 Descending Atlanta Center
10:38AM 35.8203 -83.8594 20° North 248 285 3,100 -840 Descending Atlanta Center